createdAt,value
2024-05-09T00:01:14.920Z,98838.63
2024-05-09T00:06:16.539Z,98825.28
2024-05-09T00:11:18.187Z,98834.34
2024-05-09T00:16:19.748Z,98819.97
2024-05-09T00:21:21.278Z,98828.00
2024-05-09T00:26:24.280Z,98831.16
2024-05-09T00:31:26.673Z,98824.63
2024-05-09T00:36:28.234Z,98831.50
2024-05-09T00:41:29.936Z,98826.66
2024-05-09T00:46:31.513Z,98826.16
2024-05-09T00:51:33.052Z,98826.63
2024-05-09T00:56:35.231Z,98814.78
2024-05-09T01:01:36.979Z,98822.44
2024-05-09T01:06:38.584Z,98816.94
2024-05-09T01:11:40.630Z,98826.63
2024-05-09T01:16:42.488Z,98817.22
2024-05-09T01:21:44.140Z,98814.88
2024-05-09T01:26:45.643Z,98817.53
2024-05-09T01:31:47.627Z,98814.31
2024-05-09T01:36:49.185Z,98819.94
2024-05-09T01:41:50.703Z,98824.09
2024-05-09T01:46:52.268Z,98821.09
2024-05-09T01:51:53.861Z,98827.06
2024-05-09T01:56:55.976Z,98812.00
2024-05-09T02:01:58.047Z,98813.78
2024-05-09T02:06:59.719Z,98824.97
2024-05-09T02:12:01.505Z,98821.53
2024-05-09T02:17:03.352Z,98822.94
2024-05-09T02:22:04.955Z,98830.69
2024-05-09T02:27:06.570Z,98831.63
2024-05-09T02:32:08.826Z,98829.56
2024-05-09T02:37:10.473Z,98831.84
2024-05-09T02:42:12.019Z,98821.50
2024-05-09T02:47:14.042Z,98822.81
2024-05-09T02:52:17.458Z,98835.31
2024-05-09T02:57:18.976Z,98826.09
2024-05-09T03:02:20.624Z,98826.41
2024-05-09T03:07:22.221Z,98828.53
2024-05-09T03:12:23.802Z,98826.47
2024-05-09T03:17:25.496Z,98828.63
2024-05-09T03:22:28.060Z,98824.38
2024-05-09T03:27:29.575Z,98821.72
2024-05-09T03:32:31.184Z,98822.84
2024-05-09T03:37:32.967Z,98822.31
2024-05-09T03:42:40.672Z,98817.28
2024-05-09T03:47:42.610Z,98822.63
2024-05-09T03:52:44.365Z,98833.28
2024-05-09T03:57:45.894Z,98826.88
2024-05-09T04:02:47.619Z,98831.53
2024-05-09T04:07:49.307Z,98824.06
2024-05-09T04:12:53.151Z,98827.13
2024-05-09T04:17:54.918Z,98836.66
2024-05-09T04:22:56.693Z,98834.34
2024-05-09T04:27:58.326Z,98834.88
2024-05-09T04:32:59.954Z,98840.47
2024-05-09T04:38:01.973Z,98843.34
2024-05-09T04:43:04.115Z,98847.13
2024-05-09T04:48:06.308Z,98849.16
2024-05-09T04:53:10.401Z,98847.41
2024-05-09T04:58:12.999Z,98854.50
2024-05-09T05:03:16.066Z,98854.41
2024-05-09T05:08:19.236Z,98853.63
2024-05-09T05:13:23.798Z,98853.69
2024-05-09T05:18:27.633Z,98845.72
2024-05-09T05:23:29.621Z,98845.03
2024-05-09T05:28:31.292Z,98853.13
2024-05-09T05:33:33.068Z,98839.03
2024-05-09T05:38:34.940Z,98845.28
2024-05-09T05:43:36.520Z,98856.06
2024-05-09T05:48:38.231Z,98855.28
2024-05-09T05:53:40.077Z,98857.00
2024-05-09T05:58:43.120Z,98862.06
2024-05-09T06:03:44.972Z,98859.09
2024-05-09T06:08:46.912Z,98869.63
2024-05-09T06:13:48.517Z,98873.66
2024-05-09T06:18:50.215Z,98877.47
2024-05-09T06:23:53.352Z,98875.44
2024-05-09T06:28:54.961Z,98862.31
2024-05-09T06:33:56.630Z,98867.84
2024-05-09T06:38:58.251Z,98875.41
2024-05-09T06:43:59.795Z,98884.38
2024-05-09T06:49:07.989Z,98878.28
2024-05-09T06:54:09.922Z,98883.13
2024-05-09T06:59:11.538Z,98884.91
2024-05-09T07:04:13.380Z,98879.03
2024-05-09T07:09:15.043Z,98881.56
2024-05-09T07:14:16.917Z,98882.81
2024-05-09T07:19:19.212Z,98884.09
2024-05-09T07:24:20.876Z,98881.16
2024-05-09T07:29:22.503Z,98883.91
2024-05-09T07:34:25.197Z,98891.28
2024-05-09T07:39:26.950Z,98884.94
2024-05-09T07:44:30.387Z,98881.91
2024-05-09T07:54:37.266Z,98873.28
2024-05-09T07:59:38.867Z,98865.53
2024-05-09T08:04:40.628Z,98865.81
2024-05-09T08:09:42.273Z,98857.13
2024-05-09T08:14:43.906Z,98862.84
2024-05-09T08:19:45.588Z,98863.94
2024-05-09T08:24:47.281Z,98857.41
2024-05-09T08:29:48.966Z,98870.91
2024-05-09T08:34:50.556Z,98864.34
2024-05-09T08:39:52.304Z,98866.25
2024-05-09T08:44:53.882Z,98860.22
2024-05-09T08:49:58.693Z,98862.69
2024-05-09T08:55:00.859Z,98861.56
2024-05-09T09:00:06.249Z,98863.66
2024-05-09T09:05:11.351Z,98847.22
2024-05-09T09:10:21.085Z,98862.91
2024-05-09T09:15:26.911Z,98852.88
2024-05-09T09:20:35.867Z,98860.88
2024-05-09T09:25:42.189Z,98860.13
2024-05-09T09:30:43.796Z,98865.59
2024-05-09T09:35:45.487Z,98866.31
2024-05-09T09:40:50.493Z,98864.19
2024-05-09T09:45:53.582Z,98859.66
2024-05-09T09:50:56.591Z,98868.16
2024-05-09T09:55:59.179Z,98856.28
2024-05-09T10:01:01.039Z,98855.34
2024-05-09T10:06:03.388Z,98850.38
2024-05-09T10:11:06.463Z,98852.53
2024-05-09T10:16:11.828Z,98852.59
2024-05-09T10:21:16.954Z,98847.66
2024-05-09T10:26:18.493Z,98854.34
2024-05-09T10:31:20.206Z,98849.56
2024-05-09T10:36:21.865Z,98855.75
2024-05-09T10:41:23.761Z,98847.66
2024-05-09T10:46:25.559Z,98844.38
2024-05-09T10:51:27.263Z,98843.09
2024-05-09T10:56:28.974Z,98833.34
2024-05-09T11:01:31.207Z,98836.47
2024-05-09T11:06:35.001Z,98835.66
2024-05-09T11:11:36.706Z,98826.13
2024-05-09T11:16:38.362Z,98827.00
2024-05-09T11:21:40.262Z,98821.59
2024-05-09T11:26:43.317Z,98824.28
2024-05-09T11:31:48.240Z,98816.19
2024-05-09T11:36:49.969Z,98812.00
2024-05-09T11:41:51.598Z,98802.66
2024-05-09T11:46:53.573Z,98793.28
2024-05-09T11:51:55.240Z,98799.31
2024-05-09T11:56:56.808Z,98800.34
2024-05-09T12:01:58.471Z,98794.53
2024-05-09T12:07:00.179Z,98792.66
2024-05-09T12:12:01.913Z,98795.38
2024-05-09T12:17:04.031Z,98797.91
2024-05-09T12:22:05.700Z,98769.19
2024-05-09T12:27:07.252Z,98769.34
2024-05-09T12:32:08.895Z,98764.72
2024-05-09T12:37:10.649Z,98764.03
2024-05-09T12:42:19.261Z,98749.34
2024-05-09T12:47:27.726Z,98748.97
2024-05-09T12:52:29.347Z,98749.41
2024-05-09T12:57:30.913Z,98749.19
2024-05-09T13:02:32.533Z,98735.31
2024-05-09T13:07:34.181Z,98727.53
2024-05-09T13:12:35.880Z,98717.97
2024-05-09T13:17:37.631Z,98705.84
2024-05-09T13:22:39.806Z,98710.91
2024-05-09T13:27:41.416Z,98705.56
2024-05-09T13:32:43.004Z,98713.34
2024-05-09T13:37:44.644Z,98697.63
2024-05-09T13:42:48.699Z,98697.28
2024-05-09T13:47:50.481Z,98695.63
2024-05-09T13:52:52.109Z,98691.03
2024-05-09T13:57:53.868Z,98689.16
2024-05-09T14:02:55.629Z,98693.69
2024-05-09T14:07:57.459Z,98672.63
2024-05-09T14:12:59.972Z,98674.91
2024-05-09T14:18:02.089Z,98668.44
2024-05-09T14:23:03.692Z,98665.91
2024-05-09T14:28:05.629Z,98665.44
2024-05-09T14:33:08.627Z,98655.78
2024-05-09T14:38:10.938Z,98642.25
2024-05-09T14:43:13.753Z,98646.19
2024-05-09T14:48:16.491Z,98639.19
2024-05-09T14:53:18.158Z,98632.78
2024-05-09T14:58:20.075Z,98628.13
2024-05-09T15:03:22.564Z,98623.00
2024-05-09T15:08:24.413Z,98623.41
2024-05-09T15:13:26.107Z,98607.97
2024-05-09T15:18:28.026Z,98604.53
2024-05-09T15:23:29.805Z,98614.66
2024-05-09T15:28:31.505Z,98610.41
2024-05-09T15:33:33.227Z,98615.38
2024-05-09T15:38:35.283Z,98604.72
2024-05-09T15:43:36.848Z,98603.84
2024-05-09T15:48:40.378Z,98596.97
2024-05-09T15:53:42.704Z,98595.56
2024-05-09T15:58:44.278Z,98593.28
2024-05-09T16:03:47.955Z,98594.22
2024-05-09T16:08:49.692Z,98586.22
2024-05-09T16:13:51.279Z,98579.88
2024-05-09T16:18:53.445Z,98570.50
2024-05-09T16:23:55.163Z,98568.94
2024-05-09T16:28:56.804Z,98557.41
2024-05-09T16:33:58.542Z,98574.06
2024-05-09T16:39:00.139Z,98564.91
2024-05-09T16:44:01.842Z,98561.44
2024-05-09T16:49:03.507Z,98563.38
2024-05-09T16:54:05.035Z,98565.91
2024-05-09T16:59:06.563Z,98562.88
2024-05-09T17:04:08.346Z,98564.59
2024-05-09T17:09:11.999Z,98556.91
2024-05-09T17:14:17.196Z,98560.19
2024-05-09T17:19:19.430Z,98561.59
2024-05-09T17:24:21.043Z,98558.72
2024-05-09T17:29:22.600Z,98568.63
2024-05-09T17:34:24.684Z,98558.56
2024-05-09T17:39:26.375Z,98562.59
2024-05-09T17:44:27.949Z,98555.09
2024-05-09T17:49:29.593Z,98556.50
2024-05-09T17:54:31.232Z,98562.28
2024-05-09T17:59:32.869Z,98558.00
2024-05-09T18:04:34.557Z,98562.81
2024-05-09T18:09:36.190Z,98555.19
2024-05-09T18:14:37.712Z,98554.19
2024-05-09T18:19:39.398Z,98548.66
2024-05-09T18:24:40.995Z,98549.13
2024-05-09T18:29:42.531Z,98554.59
2024-05-09T18:34:44.130Z,98549.81
2024-05-09T18:39:45.708Z,98550.28
2024-05-09T18:44:47.248Z,98550.09
2024-05-09T18:49:48.860Z,98557.19
2024-05-09T18:54:51.537Z,98571.47
2024-05-09T18:59:53.124Z,98575.59
2024-05-09T19:04:54.925Z,98583.03
2024-05-09T19:09:56.533Z,98578.84
2024-05-09T19:14:58.117Z,98583.41
2024-05-09T19:19:59.704Z,98582.13
2024-05-09T19:25:01.376Z,98580.81
2024-05-09T19:35:04.923Z,98581.28
2024-05-09T19:40:10.335Z,98592.16
2024-05-09T19:45:14.236Z,98587.31
2024-05-09T19:50:22.492Z,98590.72
2024-05-09T19:55:28.456Z,98591.47
2024-05-09T20:00:35.662Z,98588.50
2024-05-09T20:05:39.538Z,98590.03
2024-05-09T20:10:41.428Z,98593.59
2024-05-09T20:15:43.302Z,98597.63
2024-05-09T20:20:45.574Z,98602.69
2024-05-09T20:25:47.498Z,98597.81
2024-05-09T20:30:49.089Z,98590.88
2024-05-09T20:35:51.448Z,98593.03
2024-05-09T20:40:53.024Z,98590.47
2024-05-09T20:45:54.644Z,98599.28
2024-05-09T20:50:56.181Z,98593.00
2024-05-09T20:55:57.815Z,98593.75
2024-05-09T21:00:59.455Z,98599.25
2024-05-09T21:06:01.017Z,98601.00
2024-05-09T21:11:02.644Z,98600.06
2024-05-09T21:16:04.692Z,98601.81
2024-05-09T21:21:06.309Z,98599.22
2024-05-09T21:26:08.496Z,98595.88
2024-05-09T21:31:10.220Z,98606.16
2024-05-09T21:36:11.846Z,98598.28
2024-05-09T21:41:13.454Z,98602.34
2024-05-09T21:46:15.029Z,98597.72
2024-05-09T21:51:16.755Z,98600.75
2024-05-09T21:56:18.282Z,98598.44
2024-05-09T22:01:20.012Z,98594.41
2024-05-09T22:06:21.658Z,98596.06
2024-05-09T22:11:23.339Z,98593.84
2024-05-09T22:16:25.126Z,98594.03
2024-05-09T22:21:26.743Z,98595.22
2024-05-09T22:26:28.289Z,98597.53
2024-05-09T22:31:29.919Z,98601.03
2024-05-09T22:36:31.558Z,98596.75
2024-05-09T22:41:33.197Z,98598.84
2024-05-09T22:46:34.797Z,98595.56
2024-05-09T22:51:36.411Z,98600.81
2024-05-09T22:56:37.939Z,98598.88
2024-05-09T23:01:39.639Z,98584.53
2024-05-09T23:06:41.423Z,98594.56
2024-05-09T23:11:43.887Z,98588.75
2024-05-09T23:16:45.864Z,98580.25
2024-05-09T23:21:47.482Z,98571.72
2024-05-09T23:26:49.188Z,98579.78
2024-05-09T23:31:50.789Z,98574.78
2024-05-09T23:36:52.319Z,98570.59
2024-05-09T23:41:53.868Z,98568.75
2024-05-09T23:46:55.507Z,98571.41
2024-05-09T23:51:57.578Z,98576.63
2024-05-09T23:56:59.092Z,98570.66
